METAR stanice u blizini

 

LYBE - Beograd / Surčin, Srbija
Ažurirano: 05/04/2020 14:00
Vedro
Vedro
 Pravac vetra IJI
Vetar: IJI 22 km/h
Temperatura: 18°C
Tačka rose: 1°C
Vlažnost: 32%
Pritisak: 1025 hPa
Pregled: Vedro
Vidljivost: greater than 10 km
2020/04/05 12:00 LYBE 051200Z 12012KT CAVOK 18/01 Q1025 NOSIG
LYBT - Beograd / Batajnica, Srbija
Ažurirano: 05/04/2020 14:00
Vedro
Vedro
 Pravac vetra I
Vetar: I 19 km/h, Maks.: 39 km/h
Temperatura: 18°C
Tačka rose: -1°C
Vlažnost: 28%
Pritisak: 1025 hPa
Pregled: Vedro
Vidljivost: greater than 10 km
2020/04/05 12:00 LYBT 051200Z 10010G21KT CAVOK 18/M01 Q1025 NOSIG
LYVR - Vršac, Srbija
Ažurirano: 05/04/2020 14:00
Partly Cloudy
Partly Cloudy
 Pravac vetra varies
Vetar: varies 2 km/h
Temperatura: 18°C
Tačka rose: 0°C
Vlažnost: 30%
Pritisak: 1025 hPa
Oblaci: Partly Cloudy
Vidljivost: 10 km
Cloud details: Few Clouds 1006 m
Partly Cloudy 1219 m
2020/04/05 12:00 LYVR 051200Z VRB01KT 9999 FEW033 SCT040 18/M00 Q1025
 
LYKV - Lađevci, Srbija
Ažurirano: 05/04/2020 14:00
Few Clouds
Few Clouds
 Pravac vetra ISI
Vetar: ISI 17 km/h
Temperatura: 14°C
Tačka rose: -1°C
Vlažnost: 36%
Pritisak: 1025 hPa
Oblaci: Few Clouds
Vidljivost: 10 km
Cloud details: Few Clouds 1219 m
2020/04/05 12:00 LYKV 051200Z 07009KT 030V120 9999 FEW040 14/M01 Q1025 NOSIG
LYNI - Niš, Srbija
Ažurirano: 05/04/2020 14:00
Few Clouds
Few Clouds
 Pravac vetra I
Vetar: I 15 km/h
Temperatura: 15°C
Tačka rose: -3°C
Vlažnost: 29%
Pritisak: 1023 hPa
Oblaci: Few Clouds
Vidljivost: 10 km
Cloud details: Few Clouds 1372 m
2020/04/05 12:00 LYNI 051200Z 09008KT 020V140 9999 FEW045 15/M03 Q1023 NOSIG
BKPR - Priština, Srbija
Ažurirano: 05/04/2020 14:00
Mostly Cloudy
Mostly Cloudy
 Pravac vetra ISI
Vetar: ISI 28 km/h
Temperatura: 11°C
Tačka rose: -2°C
Vlažnost: 41%
Pritisak: 1021 hPa
Oblaci: Mostly Cloudy
Vidljivost: 10 km
Cloud details: Partly Cloudy 1219 m
Mostly Cloudy 2134 m
2020/04/05 12:00 BKPR 051200Z 06015KT 9999 SCT040 BKN070 11/M02 Q1021 NOSIG
 
LHPP - Pecs / Pogany, Hungary
Ažurirano: 05/04/2020 13:45
Vedro
Vedro
 Pravac vetra I
Vetar: I 13 km/h
Temperatura: 17°C
Tačka rose: 1°C
Vlažnost: 34%
Pritisak: 1026 hPa
Pregled: Vedro
Vidljivost: greater than 10 km
2020/04/05 11:45 LHPP 051145Z 09007KT CAVOK 17/01 Q1026
LHUD - Szeged, Hungary
Ažurirano: 04/07/2019 01:45
NOT Current
Vedro
Vedro
 Pravac vetra S
Vetar: S 7 km/h
Temperatura: 18°C
Tačka rose: 13°C
Vlažnost: 73%
Pritisak: 1019 hPa
Pregled: Vedro
Vidljivost: greater than 10 km
2019/07/03 23:45 LHUD 032345Z 35004KT CAVOK 18/13 Q1019
LRTR - Timisoara, Romania
Ažurirano: 05/04/2020 14:00
Vedro
Vedro
 Pravac vetra SI
Vetar: SI 13 km/h
Temperatura: 19°C
Tačka rose: -2°C
Vlažnost: 24%
Pritisak: 1025 hPa
Pregled: Vedro
Vidljivost: greater than 10 km
2020/04/05 12:00 LRTR 051200Z 05007KT CAVOK 19/M02 Q1025 NOSIG
 
LRCV - Craiova, Romania
Ažurirano: 05/04/2020 14:00
Vedro
Vedro
 Pravac vetra I
Vetar: I 39 km/h, Maks.: 57 km/h
Temperatura: 15°C
Tačka rose: -1°C
Vlažnost: 34%
Pritisak: 1025 hPa
Pregled: Vedro
Vidljivost: greater than 10 km
2020/04/05 12:00 LRCV 051200Z 09021G31KT CAVOK 15/M01 Q1025
LBSF - Sofia, Bulgaria
Ažurirano: 05/04/2020 14:00
Oblačno
Oblačno
 Pravac vetra ISI
Vetar: ISI 20 km/h
Temperatura: 8°C
Osećaj hladnoće: 4°C
Tačka rose: 1°C
Vlažnost: 62%
Pritisak: 1023 hPa
Oblaci: Oblačno
Vidljivost: 10 km
Cloud details: Few Clouds 1128 m
Partly Cloudy 1433 m
Oblačno 1981 m
2020/04/05 12:00 LBSF 051200Z 07011KT 030V090 9999 FEW037 SCT047 OVC065 08/01 Q1023 NOSIG
LWSK - Skoplje, Makedonija
Ažurirano: 05/04/2020 14:00
Slaba kiša, Oblačno
Slaba kiša, Oblačno
 Pravac vetra S
Vetar: S 19 km/h
Temperatura: 10°C
Osećaj hladnoće: 7°C
Tačka rose: 5°C
Vlažnost: 71%
Pritisak: 1021 hPa
Pregled: Light Rain
Oblaci: Oblačno
Vidljivost: 10 km
Cloud details: Oblačno 1402 m
2020/04/05 12:00 LWSK 051200Z 01010KT 310V070 9999 -RA OVC046 10/05 Q1021 NOSIG
 
LYPG - Podgorica, Crna Gora
Ažurirano: 05/04/2020 14:00
Mostly Cloudy
Mostly Cloudy
 Pravac vetra ISI
Vetar: ISI 33 km/h
Temperatura: 19°C
Tačka rose: -1°C
Vlažnost: 26%
Pritisak: 1016 hPa
Oblaci: Mostly Cloudy
Vidljivost: 10 km
Cloud details: Partly Cloudy 1219 m
Mostly Cloudy 2743 m
2020/04/05 12:00 LYPG 051200Z 06018KT 9999 SCT040 BKN090 19/M01 Q1016 NOSIG
LQSA - Sarajevo, Bosna i Hercegovina
Ažurirano: 05/04/2020 14:00
Few Clouds
Few Clouds
 Pravac vetra I
Vetar: I 22 km/h, Maks.: 41 km/h
Temperatura: 15°C
Tačka rose: -3°C
Vlažnost: 29%
Pritisak: 1022 hPa
Oblaci: Few Clouds
Vidljivost: 10 km
Cloud details: Few Clouds 1829 m
2020/04/05 12:00 LQSA 051200Z 08012G22KT 050V110 9999 FEW060 15/M03 Q1022 NOSIG
LDOS - Osijek, Hrvatksa
Ažurirano: 05/04/2020 14:00
Vedro
Vedro
 Pravac vetra ISI
Vetar: ISI 20 km/h
Temperatura: 18°C
Tačka rose: 2°C
Vlažnost: 34%
Pritisak: 1026 hPa
Pregled: Vedro
Vidljivost: greater than 10 km
2020/04/05 12:00 LDOS 051200Z 07011KT 030V110 CAVOK 18/02 Q1026